Time;durP1;ratioP1;P1;durP2;ratioP2;P2;SDS_P1;SDS_P2;PMS_P1;PMS_P2;Temp;Humidity;BMP_temperature;BMP_pressure;BME280_temperature;BME280_humidity;BME280_pressure;Samples;Min_cycle;Max_cycle;Signal;HPM_P1;HPM_P2
2022/10/20 00:00:49;;;;;;;20.70;9.20;;;;;;;6.66;92.54;101508.61;638332;1301;140417;-79
2022/10/20 00:16:06;;;;;;;24.80;11.10;;;;;;;6.47;93.66;101513.77;637331;1306;138383;-79
2022/10/20 00:31:10;;;;;;;18.90;8.90;;;;;;;6.60;94.80;101516.91;637877;1313;138564;-79
2022/10/20 00:46:20;;;;;;;13.20;7.00;;;;;;;6.89;95.28;101508.97;637781;1294;138417;-79
2022/10/20 01:01:23;;;;;;;21.70;11.90;;;;;;;7.05;95.17;101507.60;637787;1313;138532;-80
2022/10/20 01:16:36;;;;;;;26.40;11.30;;;;;;;7.23;94.70;101506.86;637272;1310;138568;-80
2022/10/20 01:31:48;;;;;;;16.80;7.20;;;;;;;7.18;95.55;101489.85;637945;1301;139303;-80
2022/10/20 01:46:52;;;;;;;68.30;22.00;;;;;;;7.32;95.30;101484.95;638528;1313;138341;-80
2022/10/20 02:02:20;;;;;;;31.90;12.60;;;;;;;7.29;96.04;101472.94;637690;1313;139145;-79
2022/10/20 02:17:23;;;;;;;15.70;8.50;;;;;;;7.20;96.01;101466.11;638072;1313;138934;-79
2022/10/20 02:32:28;;;;;;;12.00;6.40;;;;;;;6.96;96.98;101457.98;638204;1308;139459;-79
2022/10/20 02:47:31;;;;;;;11.80;6.30;;;;;;;6.81;97.10;101449.39;638401;1313;138519;-79
2022/10/20 03:02:36;;;;;;;13.90;7.30;;;;;;;6.51;96.71;101447.34;637654;1308;139254;-79
2022/10/20 03:17:40;;;;;;;11.70;7.00;;;;;;;6.06;96.79;101461.63;637696;1307;138350;-78
2022/10/20 03:32:43;;;;;;;17.40;10.30;;;;;;;5.65;96.29;101466.57;638238;1314;138352;-79
2022/10/20 03:47:46;;;;;;;37.60;13.90;;;;;;;5.45;95.86;101476.33;643449;1295;138642;-79
2022/10/20 04:02:50;;;;;;;14.50;7.00;;;;;;;5.23;95.37;101483.27;638917;1307;138912;-79
2022/10/20 04:17:53;;;;;;;17.50;7.80;;;;;;;5.10;95.70;101491.50;637651;1297;138469;-79
2022/10/20 04:32:56;;;;;;;14.60;8.30;;;;;;;4.97;95.33;101491.40;638132;1313;138973;-79
2022/10/20 04:48:01;;;;;;;17.80;9.10;;;;;;;4.66;94.94;101492.42;637543;1315;138721;-79
2022/10/20 05:03:04;;;;;;;21.00;9.10;;;;;;;4.52;95.10;101493.71;638031;1299;138496;-78
2022/10/20 05:18:07;;;;;;;20.60;11.20;;;;;;;4.62;95.84;101499.00;637158;1314;138491;-78
2022/10/20 05:33:10;;;;;;;22.50;12.20;;;;;;;4.83;96.22;101498.60;637307;1308;138619;-79
2022/10/20 05:48:13;;;;;;;27.70;14.60;;;;;;;5.04;96.54;101512.77;638108;1313;139355;-78
2022/10/20 06:03:17;;;;;;;32.30;17.60;;;;;;;5.10;96.05;101528.64;642754;1307;1140420;-79
2022/10/20 06:18:24;;;;;;;37.10;18.30;;;;;;;5.27;96.00;101544.65;639580;1313;139466;-78
2022/10/20 06:33:29;;;;;;;42.30;23.40;;;;;;;5.63;96.79;101547.32;637948;1298;139239;-78
2022/10/20 06:48:34;;;;;;;55.00;28.30;;;;;;;5.99;96.96;101548.46;637661;1304;139053;-79
2022/10/20 07:03:38;;;;;;;36.50;19.00;;;;;;;6.29;97.51;101559.71;637768;1307;142187;-79
2022/10/20 07:18:42;;;;;;;34.40;20.70;;;;;;;6.79;97.22;101575.90;639435;1301;139826;-80
2022/10/20 07:33:50;;;;;;;28.50;15.80;;;;;;;7.52;96.95;101587.24;637389;1307;139285;-80
2022/10/20 07:49:13;;;;;;;24.40;12.30;;;;;;;7.91;96.80;101599.91;648424;1291;139211;-81
2022/10/20 08:04:36;;;;;;;19.60;10.70;;;;;;;8.28;96.40;101601.13;639451;1300;139763;-78
2022/10/20 08:19:40;;;;;;;34.20;19.60;;;;;;;8.55;95.90;101599.80;637425;1291;139167;-78
2022/10/20 08:34:57;;;;;;;23.00;13.00;;;;;;;9.10;95.47;101597.25;637457;1308;138891;-79
2022/10/20 08:50:08;;;;;;;19.10;11.00;;;;;;;9.62;94.50;101595.60;637470;1303;138983;-79
2022/10/20 09:05:14;;;;;;;20.20;11.20;;;;;;;10.31;93.28;101592.20;637244;1314;142547;-79
2022/10/20 09:20:25;;;;;;;16.40;9.60;;;;;;;10.86;89.87;101591.37;637274;1298;139416;-80
2022/10/20 09:35:30;;;;;;;13.20;7.40;;;;;;;11.66;86.00;101589.85;636948;1307;139957;-79
2022/10/20 09:50:37;;;;;;;11.00;6.30;;;;;;;12.56;83.25;101594.95;638262;1302;140089;-80
2022/10/20 10:05:40;;;;;;;20.50;12.50;;;;;;;13.71;78.01;101590.34;637613;1311;140496;-80
2022/10/20 10:20:44;;;;;;;10.30;5.30;;;;;;;14.16;73.22;101578.05;638298;1313;140504;-80
2022/10/20 10:35:48;;;;;;;4.50;2.80;;;;;;;15.20;73.05;101566.23;638733;1305;138790;-80
2022/10/20 10:51:06;;;;;;;6.70;3.60;;;;;;;16.31;67.84;101546.88;638092;1300;139378;-80
2022/10/20 11:06:17;;;;;;;5.50;2.60;;;;;;;17.13;62.00;101528.65;638763;1313;139976;-80
2022/10/20 11:22:11;;;;;;;1.50;1.10;;;;;;;17.38;58.24;101500.41;638942;1305;138306;-80
2022/10/20 11:37:23;;;;;;;5.70;3.30;;;;;;;17.24;56.10;101483.09;635555;1307;138728;-80
2022/10/20 11:53:09;;;;;;;6.20;2.10;;;;;;;17.88;56.16;101463.54;640456;1299;141335;-81
2022/10/20 12:08:36;;;;;;;4.00;1.70;;;;;;;18.28;53.37;101461.83;638128;1298;139752;-82
2022/10/20 12:23:43;;;;;;;3.40;2.00;;;;;;;18.62;53.45;101450.70;638032;1307;139583;-84
2022/10/20 12:38:53;;;;;;;9.90;8.90;;;;;;;18.17;52.16;101447.80;639675;1299;138728;-81
2022/10/20 12:54:03;;;;;;;3.70;2.20;;;;;;;18.94;52.47;101431.59;638911;1301;138569;-80
2022/10/20 13:09:19;;;;;;;2.30;1.90;;;;;;;19.79;50.22;101413.83;638580;1308;138941;-81
2022/10/20 13:24:30;;;;;;;12.80;9.90;;;;;;;25.34;44.87;101403.75;639157;1301;139567;-80
2022/10/20 13:39:48;;;;;;;3.50;1.80;;;;;;;24.48;43.75;101391.97;637797;1302;138689;-81
2022/10/20 13:54:53;;;;;;;;;;;;;;;24.82;43.50;101378.02;638148;1301;139279;-80
2022/10/20 14:09:57;;;;;;;5.70;3.70;;;;;;;23.00;46.43;101364.79;641452;1290;125512;-80
2022/10/20 14:25:04;;;;;;;5.00;2.60;;;;;;;28.41;42.53;101365.87;637921;1291;139167;-81
2022/10/20 14:40:21;;;;;;;6.30;3.20;;;;;;;26.71;40.72;101361.06;639127;1300;139450;-80
2022/10/20 14:55:38;;;;;;;7.60;5.40;;;;;;;20.06;44.67;101350.05;641840;1297;139081;-81
2022/10/20 15:10:41;;;;;;;16.00;8.40;;;;;;;19.18;47.10;101337.67;639674;1302;139370;-79
2022/10/20 15:25:47;;;;;;;38.10;26.70;;;;;;;16.31;50.26;101320.61;639439;1301;139098;-79
2022/10/20 15:40:51;;;;;;;15.10;11.20;;;;;;;14.31;53.43;101314.24;639324;1301;139136;-80
2022/10/20 15:55:54;;;;;;;167.60;87.00;;;;;;;12.83;57.07;101312.61;637910;1300;138768;-79
2022/10/20 16:10:58;;;;;;;166.00;67.20;;;;;;;12.07;58.82;101306.81;640339;1294;139391;-79
2022/10/20 16:26:08;;;;;;;76.70;32.30;;;;;;;11.46;60.30;101310.27;638720;1310;142173;-79
2022/10/20 16:41:14;;;;;;;;;;;;;;;10.83;62.41;101308.95;639386;1307;138640;-79
2022/10/20 16:56:18;;;;;;;46.40;27.70;;;;;;;10.19;63.69;101301.92;639086;1307;124710;-79
2022/10/20 17:11:29;;;;;;;46.10;21.60;;;;;;;9.59;65.64;101305.38;638861;1288;138358;-79
2022/10/20 17:26:33;;;;;;;68.60;36.10;;;;;;;9.24;67.11;101306.63;639701;1313;139097;-79
2022/10/20 17:41:36;;;;;;;149.80;50.90;;;;;;;8.85;68.88;101304.62;638859;1303;139126;-79
2022/10/20 17:56:39;;;;;;;62.00;24.70;;;;;;;8.71;70.69;101300.79;637538;1292;1519314;-79
2022/10/20 18:11:46;;;;;;;58.00;24.90;;;;;;;8.62;71.95;101298.39;639799;1304;140249;-79
2022/10/20 18:26:49;;;;;;;37.50;15.00;;;;;;;8.33;72.52;101291.98;638947;1313;138917;-79
2022/10/20 18:41:53;;;;;;;40.90;16.40;;;;;;;8.16;73.91;101299.11;639532;1305;139646;-79
2022/10/20 18:56:57;;;;;;;72.20;57.20;;;;;;;8.01;74.56;101294.64;639352;1308;140026;-79
2022/10/20 19:12:00;;;;;;;59.60;26.60;;;;;;;7.70;75.46;101297.40;639165;1307;139844;-79
2022/10/20 19:27:06;;;;;;;23.40;13.50;;;;;;;7.46;75.87;101289.23;638743;1308;138842;-79
2022/10/20 19:42:29;;;;;;;18.50;9.90;;;;;;;7.27;76.99;101285.77;638521;1299;139446;-79
2022/10/20 19:57:32;;;;;;;20.10;12.20;;;;;;;7.22;77.18;101265.39;637792;1313;139619;-79
2022/10/20 20:12:36;;;;;;;20.30;10.80;;;;;;;7.17;77.92;101256.59;639056;1313;139718;-79
2022/10/20 20:27:39;;;;;;;32.10;16.20;;;;;;;7.02;78.48;101250.88;639263;1313;140036;-79
2022/10/20 20:42:44;;;;;;;25.10;12.20;;;;;;;7.03;78.63;101217.43;638541;1299;139851;-79
2022/10/20 20:57:47;;;;;;;22.20;11.60;;;;;;;6.98;78.99;101185.19;638305;1311;139864;-79
2022/10/20 21:12:50;;;;;;;22.50;10.50;;;;;;;6.76;79.05;101181.05;638276;1313;139787;-78
2022/10/20 21:27:53;;;;;;;25.80;11.40;;;;;;;6.68;78.60;101183.08;638324;1313;139081;-78
2022/10/20 21:42:57;;;;;;;26.30;12.20;;;;;;;6.69;79.47;101145.80;638306;1313;139490;-78
2022/10/20 21:58:00;;;;;;;31.90;12.60;;;;;;;6.65;79.71;101125.02;638035;1313;138983;-80
2022/10/20 22:13:03;;;;;;;38.20;13.40;;;;;;;6.62;79.50;101104.70;638846;1299;138936;-80
2022/10/20 22:28:07;;;;;;;28.10;10.30;;;;;;;6.47;81.18;101122.75;638794;1313;139083;-78
2022/10/20 22:43:10;;;;;;;25.90;12.40;;;;;;;6.28;81.28;101139.09;637644;1305;139512;-78
2022/10/20 22:58:13;;;;;;;19.60;10.50;;;;;;;6.12;81.68;101138.09;639282;1313;139461;-78
2022/10/20 23:13:16;;;;;;;16.20;8.40;;;;;;;6.01;81.40;101125.83;638486;1313;139922;-78
2022/10/20 23:28:19;;;;;;;21.10;9.20;;;;;;;5.86;82.91;101116.05;638325;1309;139294;-77
2022/10/20 23:43:23;;;;;;;14.90;8.80;;;;;;;5.74;84.26;101111.84;637907;1313;139294;-79
2022/10/20 23:58:26;;;;;;;13.40;8.20;;;;;;;5.62;85.22;101122.90;638160;1307;139796;-78
